Time;durP1;ratioP1;P1;durP2;ratioP2;P2;SDS_P1;SDS_P2;PMS_P1;PMS_P2;Temp;Humidity;BMP_temperature;BMP_pressure;BME280_temperature;BME280_humidity;BME280_pressure;Samples;Min_cycle;Max_cycle;Signal;HPM_P1;HPM_P2
2022/09/19 00:01:30;;;;;;;;;;;;;;;13.14;63.32;100744.59;5003953;28;6872;-78
2022/09/19 00:04:14;;;;;;;;;;;;;;;13.14;62.89;100744.59;4986784;28;7389;-78
2022/09/19 00:06:42;;;;;;;;;;;;;;;13.13;63.56;100747.94;4980681;28;6838;-77
2022/09/19 00:09:15;;;;;;;;;;;;;;;13.14;63.39;100752.31;4994695;28;6999;-78
2022/09/19 00:11:44;;;;;;;;;;;;;;;13.15;63.57;100751.50;4994973;28;6812;-78
2022/09/19 00:14:14;;;;;;;;;;;;;;;13.15;63.55;100748.91;4994783;28;6875;-77
2022/09/19 00:16:44;;;;;;;;;;;;;;;13.19;63.52;100748.22;4988069;28;6997;-77
2022/09/19 00:19:19;;;;;;;;;;;;;;;13.24;63.22;100745.00;4995040;28;6803;-77
2022/09/19 00:21:47;;;;;;;;;;;;;;;13.25;63.00;100737.31;4983967;28;7162;-77
2022/09/19 00:27:04;;;;;;;;;;;;;;;13.26;63.60;100739.06;5010726;28;6800;-78
2022/09/19 00:29:32;;;;;;;;;;;;;;;13.24;62.77;100739.84;4977390;28;6970;-78
2022/09/19 00:31:58;;;;;;;;;;;;;;;13.22;62.67;100737.19;4995790;28;7040;-78
2022/09/19 00:34:25;;;;;;;;;;;;;;;13.22;63.30;100741.44;4995732;28;7395;-77
2022/09/19 00:36:51;;;;;;;;;;;;;;;13.19;63.07;100740.50;4995745;28;8458;-78
2022/09/19 00:39:19;;;;;;;;;;;;;;;13.17;63.64;100739.56;4994005;28;7197;-78
2022/09/19 00:41:47;;;;;;;;;;;;;;;13.14;62.93;100747.16;4997872;28;7251;-78
2022/09/19 00:44:21;;;;;;;;;;;;;;;13.14;62.66;100742.03;4976528;28;8439;-78
2022/09/19 00:46:55;;;;;;;;;;;;;;;13.13;62.69;100745.38;4996565;28;6959;-77
2022/09/19 00:49:25;;;;;;;;;;;;;;;13.13;63.57;100753.09;5012850;28;6804;-78
2022/09/19 00:51:56;;;;;;;;;;;;;;;13.11;63.51;100743.56;4994108;28;7199;-78
2022/09/19 00:54:33;;;;;;;;;;;;;;;13.11;63.07;100752.16;4996357;28;7010;-78
2022/09/19 00:57:02;;;;;;;;;;;;;;;13.09;62.58;100745.22;4999050;28;8439;-78
2022/09/19 00:59:36;;;;;;;;;;;;;;;13.08;63.64;100744.31;4978588;28;6982;-77
2022/09/19 01:02:05;;;;;;;;;;;;;;;13.05;63.21;100745.06;4992973;28;7438;-79
2022/09/19 01:04:35;;;;;;;;;;;;;;;13.06;63.45;100745.94;5001319;28;7236;-77
2022/09/19 01:07:13;;;;;;;;;;;;;;;13.03;63.04;100746.69;4994085;28;7388;-78
2022/09/19 01:10:00;;;;;;;;;;;;;;;13.04;63.60;100747.59;4994139;28;7043;-78
2022/09/19 01:12:47;;;;;;;;;;;;;;;13.00;62.77;100751.72;4993963;28;6995;-78
2022/09/19 01:16:02;;;;;;;;;;;;;;;12.99;62.93;100757.69;5012045;28;6974;-78
2022/09/19 01:18:49;;;;;;;;;;;;;;;12.97;63.00;100750.69;5000245;28;6858;-78
2022/09/19 01:21:40;;;;;;;;;;;;;;;12.97;63.12;100753.28;4985322;28;7227;-77
2022/09/19 01:24:56;;;;;;;;;;;;;;;12.97;63.27;100753.28;4979085;28;7340;-78
2022/09/19 01:27:44;;;;;;;;;;;;;;;12.94;63.58;100764.28;5007653;28;7264;-79
2022/09/19 01:30:13;;;;;;;;;;;;;;;12.92;63.65;100764.22;4994571;28;7098;-77
2022/09/19 01:32:55;;;;;;;;;;;;;;;12.92;63.01;100753.94;4993151;28;11359;-77
2022/09/19 01:35:31;;;;;;;;;;;;;;;12.94;63.27;100768.53;4983329;28;6978;-78
2022/09/19 01:38:07;;;;;;;;;;;;;;;12.94;62.73;100760.81;4994377;28;6965;-77
2022/09/19 01:40:35;;;;;;;;;;;;;;;12.93;63.29;100765.13;4984814;28;6807;-77
2022/09/19 01:43:00;;;;;;;;;;;;;;;12.93;62.93;100765.13;4992570;28;7082;-77
2022/09/19 01:45:36;;;;;;;;;;;;;;;12.94;62.89;100768.53;4985158;28;6992;-78
2022/09/19 01:48:22;;;;;;;;;;;;;;;12.91;62.88;100764.16;4999142;28;7349;-78
2022/09/19 01:51:17;;;;;;;;;;;;;;;12.90;63.39;100773.56;4984528;28;7067;-77
2022/09/19 01:54:06;;;;;;;;;;;;;;;12.89;63.41;100782.09;5011340;28;8435;-79
2022/09/19 01:56:41;;;;;;;;;;;;;;;12.89;63.59;100779.53;5010786;28;6832;-77
2022/09/19 01:59:23;;;;;;;;;;;;;;;12.88;62.91;100782.91;5012458;28;7252;-78
2022/09/19 02:02:07;;;;;;;;;;;;;;;12.89;63.16;100789.81;4979079;28;7139;-78
2022/09/19 02:05:11;;;;;;;;;;;;;;;12.88;63.38;100789.75;4992202;28;7213;-77
2022/09/19 02:07:54;;;;;;;;;;;;;;;12.86;63.36;100789.69;4993794;28;7142;-78
2022/09/19 02:10:30;;;;;;;;;;;;;;;12.86;63.19;100787.13;4992037;28;8610;-77
2022/09/19 02:13:03;;;;;;;;;;;;;;;12.84;63.50;100785.28;4991967;28;7211;-78
2022/09/19 02:15:34;;;;;;;;;;;;;;;12.84;62.83;100790.44;4984939;28;7159;-78
2022/09/19 02:18:24;;;;;;;;;;;;;;;12.82;62.83;100784.34;4995011;28;7076;-80
2022/09/19 02:21:10;;;;;;;;;;;;;;;12.80;62.72;100789.41;4996307;28;6796;-80
2022/09/19 02:23:47;;;;;;;;;;;;;;;12.81;63.43;100790.28;4981685;28;8780;-79
2022/09/19 02:26:19;;;;;;;;;;;;;;;12.80;63.31;100789.41;4976593;28;6983;-80
2022/09/19 02:28:54;;;;;;;;;;;;;;;12.81;63.21;100791.16;4996216;28;7064;-79
2022/09/19 02:31:26;;;;;;;;;;;;;;;12.82;63.43;100790.34;4986747;28;7057;-80
2022/09/19 02:33:58;;;;;;;;;;;;;;;12.81;63.10;100793.72;4995286;28;7224;-80
2022/09/19 02:36:53;;;;;;;;;;;;;;;12.82;63.30;100802.34;4968038;28;7029;-80
2022/09/19 02:40:08;;;;;;;;;;;;;;;12.78;63.28;100797.03;4987246;28;8531;-80
2022/09/19 02:42:56;;;;;;;;;;;;;;;12.77;63.41;100797.84;4993693;28;7252;-80
2022/09/19 02:45:51;;;;;;;;;;;;;;;12.75;62.75;100801.19;4978730;28;7165;-80
2022/09/19 02:48:43;;;;;;;;;;;;;;;12.74;62.53;100799.41;4978409;28;7234;-80
2022/09/19 02:51:30;;;;;;;;;;;;;;;12.72;63.18;100801.03;4985137;28;8675;-80
2022/09/19 02:54:07;;;;;;;;;;;;;;;12.71;62.93;100799.28;4994845;28;7224;-80
2022/09/19 02:56:37;;;;;;;;;;;;;;;12.70;62.64;100800.09;4983711;28;6982;-79
2022/09/19 02:59:18;;;;;;;;;;;;;;;12.71;63.12;100810.47;4978654;28;7061;-80
2022/09/19 03:01:54;;;;;;;;;;;;;;;12.71;62.88;100801.84;4982077;28;8581;-80
2022/09/19 03:04:30;;;;;;;;;;;;;;;12.71;63.11;100794.13;4994061;28;7049;-80
2022/09/19 03:07:27;;;;;;;;;;;;;;;12.70;63.30;100800.97;4982927;28;8775;-81
2022/09/19 03:10:05;;;;;;;;;;;;;;;12.68;63.33;100794.88;4968642;28;7142;-80
2022/09/19 03:12:51;;;;;;;;;;;;;;;12.68;63.15;100802.56;4998781;28;6976;-80
2022/09/19 03:15:32;;;;;;;;;;;;;;;12.68;63.36;100806.84;4974820;28;8655;-81
2022/09/19 03:18:01;;;;;;;;;;;;;;;12.68;62.88;100804.28;4996145;28;6984;-81
2022/09/19 03:20:27;;;;;;;;;;;;;;;12.69;62.89;100806.03;4991933;28;8472;-81
2022/09/19 03:22:53;;;;;;;;;;;;;;;12.70;63.00;100807.81;4991001;28;6860;-80
2022/09/19 03:25:20;;;;;;;;;;;;;;;12.69;63.19;100806.03;4973373;28;8472;-81
2022/09/19 03:27:45;;;;;;;;;;;;;;;12.68;62.63;100801.72;4985379;28;7031;-81
2022/09/19 03:30:13;;;;;;;;;;;;;;;12.67;63.00;100803.41;4988732;28;7327;-81
2022/09/19 03:32:41;;;;;;;;;;;;;;;12.68;63.22;100815.44;4990472;28;11300;-80
2022/09/19 03:35:10;;;;;;;;;;;;;;;12.68;62.83;100809.44;4980087;28;8543;-81
2022/09/19 03:37:35;;;;;;;;;;;;;;;12.71;63.85;100807.88;4986480;28;7819;-80
2022/09/19 03:40:02;;;;;;;;;;;;;;;12.73;63.83;100806.25;4994611;28;6783;-80
2022/09/19 03:42:28;;;;;;;;;;;;;;;12.76;63.41;100805.53;4992744;28;7166;-80
2022/09/19 03:44:54;;;;;;;;;;;;;;;12.79;63.13;100805.66;4999629;28;7124;-81
2022/09/19 03:47:21;;;;;;;;;;;;;;;12.78;63.14;100809.91;4980624;28;6800;-80
2022/09/19 03:49:51;;;;;;;;;;;;;;;12.81;63.09;100816.03;4996073;28;6980;-81
2022/09/19 03:52:18;;;;;;;;;;;;;;;12.81;63.04;100821.16;4988089;28;8202;-81
2022/09/19 03:54:45;;;;;;;;;;;;;;;12.82;62.71;100817.78;5001741;28;8493;-80
2022/09/19 03:57:12;;;;;;;;;;;;;;;12.83;63.06;100820.41;4996727;28;6962;-81
2022/09/19 03:59:41;;;;;;;;;;;;;;;12.85;63.02;100813.66;4995844;28;8501;-81
2022/09/19 04:02:08;;;;;;;;;;;;;;;12.89;63.60;100814.66;5006083;28;7082;-80
2022/09/19 04:04:34;;;;;;;;;;;;;;;12.96;63.65;100820.97;4986172;28;8475;-80
2022/09/19 04:07:01;;;;;;;;;;;;;;;13.01;64.52;100817.78;4984602;28;7003;-80
2022/09/19 04:09:27;;;;;;;;;;;;;;;13.11;63.80;100821.63;4980895;28;8636;-80
2022/09/19 04:11:55;;;;;;;;;;;;;;;13.17;64.32;100821.03;4996765;28;6784;-80
2022/09/19 04:14:21;;;;;;;;;;;;;;;13.25;64.32;100821.38;4968187;28;8425;-81
2022/09/19 04:16:46;;;;;;;;;;;;;;;13.28;64.26;100824.09;4979167;28;8479;-80
2022/09/19 04:19:12;;;;;;;;;;;;;;;13.31;63.42;100821.63;4999564;28;7023;-80
2022/09/19 04:21:42;;;;;;;;;;;;;;;13.34;63.95;100830.38;4969787;28;7020;-80
2022/09/19 04:24:13;;;;;;;;;;;;;;;13.36;63.31;100826.97;5000160;28;8499;-79
2022/09/19 04:26:43;;;;;;;;;;;;;;;13.35;63.67;100828.69;4968104;28;8375;-80
2022/09/19 04:29:09;;;;;;;;;;;;;;;13.34;63.28;100829.50;4996702;28;8598;-80
2022/09/19 04:31:38;;;;;;;;;;;;;;;13.34;63.68;100834.66;4978586;28;7253;-80
2022/09/19 04:34:05;;;;;;;;;;;;;;;13.34;63.58;100843.25;4996108;28;7300;-80
2022/09/19 04:36:34;;;;;;;;;;;;;;;13.36;63.30;100829.56;5012828;28;7770;-80
2022/09/19 04:39:02;;;;;;;;;;;;;;;13.36;64.16;100827.88;5001016;28;7300;-80
2022/09/19 04:41:33;;;;;;;;;;;;;;;13.39;63.32;100838.31;5002102;28;6968;-80
2022/09/19 04:44:00;;;;;;;;;;;;;;;13.41;63.97;100836.66;4997435;28;7254;-80
2022/09/19 04:46:28;;;;;;;;;;;;;;;13.41;63.27;100839.25;5001297;28;6972;-80
2022/09/19 04:48:58;;;;;;;;;;;;;;;13.44;63.72;100842.00;4983747;28;7427;-80
2022/09/19 04:51:24;;;;;;;;;;;;;;;13.46;63.32;100844.63;4984889;28;8802;-80
2022/09/19 04:53:51;;;;;;;;;;;;;;;13.48;63.31;100843.03;4998107;28;7203;-80
2022/09/19 04:56:18;;;;;;;;;;;;;;;13.52;64.37;100844.00;4979604;28;6996;-80
2022/09/19 04:58:45;;;;;;;;;;;;;;;13.55;64.37;100860.47;4995003;28;7083;-80
2022/09/19 05:01:14;;;;;;;;;;;;;;;13.59;63.92;100859.81;4993723;28;6872;-79
2022/09/19 05:03:43;;;;;;;;;;;;;;;13.63;63.95;100854.78;4995051;28;7209;-80
2022/09/19 05:06:11;;;;;;;;;;;;;;;13.67;63.75;100854.13;4983548;28;7227;-80
2022/09/19 05:08:37;;;;;;;;;;;;;;;13.70;64.31;100859.38;4975992;28;8463;-79
2022/09/19 05:11:06;;;;;;;;;;;;;;;13.75;64.04;100855.28;4994993;28;8427;-80
2022/09/19 05:13:36;;;;;;;;;;;;;;;13.78;63.38;100862.28;4992029;28;8509;-80
2022/09/19 05:16:02;;;;;;;;;;;;;;;13.80;64.10;100855.47;4977131;28;6997;-80
2022/09/19 05:18:33;;;;;;;;;;;;;;;13.85;63.95;100866.88;4998773;28;6934;-80
2022/09/19 05:21:05;;;;;;;;;;;;;;;13.88;63.34;100864.41;4997922;28;7281;-79
2022/09/19 05:23:30;;;;;;;;;;;;;;;13.92;64.32;100870.59;4982896;28;6986;-80
2022/09/19 05:26:01;;;;;;;;;;;;;;;13.93;63.53;100873.25;4994209;28;7313;-79
2022/09/19 05:28:27;;;;;;;;;;;;;;;13.95;64.03;100873.28;4994835;28;6967;-79
2022/09/19 05:30:55;;;;;;;;;;;;;;;13.98;64.30;100878.59;5011717;28;6864;-80
2022/09/19 05:33:26;;;;;;;;;;;;;;;13.99;64.43;100877.75;5001335;28;6973;-80
2022/09/19 05:35:59;;;;;;;;;;;;;;;14.01;63.96;100870.97;4983036;28;6965;-80
2022/09/19 05:38:24;;;;;;;;;;;;;;;14.04;63.87;100881.41;4999443;28;7214;-80
2022/09/19 05:40:55;;;;;;;;;;;;;;;14.06;63.47;100881.47;4992350;28;8846;-79
2022/09/19 05:43:22;;;;;;;;;;;;;;;14.08;63.93;100884.97;4967452;28;8372;-80
2022/09/19 05:45:53;;;;;;;;;;;;;;;14.11;63.49;100883.41;4995660;28;7382;-79
2022/09/19 05:48:20;;;;;;;;;;;;;;;14.14;64.16;100887.81;4987652;28;8791;-80
2022/09/19 05:50:47;;;;;;;;;;;;;;;14.18;63.98;100889.69;4996603;28;6788;-80
2022/09/19 05:55:59;;;;;;;;;;;;;;;14.21;64.00;100887.28;5003353;28;6812;-80
2022/09/19 05:58:27;;;;;;;;;;;;;;;14.26;64.25;100901.22;5010506;28;6784;-80
2022/09/19 06:00:52;;;;;;;;;;;;;;;14.26;64.30;100898.63;4996256;28;7308;-79
2022/09/19 06:03:21;;;;;;;;;;;;;;;14.32;63.70;100904.88;4980603;28;8541;-79
2022/09/19 06:05:51;;;;;;;;;;;;;;;14.36;63.67;100909.31;4998833;28;6994;-79
2022/09/19 06:08:19;;;;;;;;;;;;;;;14.40;63.49;100906.06;4979392;28;8526;-79
2022/09/19 06:10:47;;;;;;;;;;;;;;;14.40;63.73;100913.81;4982120;28;8508;-79
2022/09/19 06:13:19;;;;;;;;;;;;;;;14.36;62.56;100915.38;4978512;28;8331;-79
2022/09/19 06:15:44;;;;;;;;;;;;;;;14.30;62.79;100915.09;4993852;28;7239;-80
2022/09/19 06:18:11;;;;;;;;;;;;;;;14.23;62.65;100913.97;4995403;28;7185;-79
2022/09/19 06:20:38;;;;;;;;;;;;;;;14.16;63.25;100911.97;4992327;28;6808;-79
2022/09/19 06:23:06;;;;;;;;;;;;;;;14.10;62.65;100917.75;4981633;28;7046;-79
2022/09/19 06:25:38;;;;;;;;;;;;;;;14.07;62.52;100921.88;4994492;28;8716;-80
2022/09/19 06:28:10;;;;;;;;;;;;;;;14.02;62.85;100924.28;4979795;28;8801;-79
2022/09/19 06:30:35;;;;;;;;;;;;;;;13.98;63.26;100923.25;4994429;28;6980;-79
2022/09/19 06:33:01;;;;;;;;;;;;;;;13.97;62.86;100925.78;4994587;28;7283;-79
2022/09/19 06:35:31;;;;;;;;;;;;;;;13.97;63.58;100930.94;4967630;28;6967;-79
2022/09/19 06:38:04;;;;;;;;;;;;;;;13.97;63.84;100926.66;4981596;28;6954;-80
2022/09/19 06:40:31;;;;;;;;;;;;;;;14.01;63.46;100937.97;4967127;28;8552;-80
2022/09/19 06:43:03;;;;;;;;;;;;;;;14.04;64.28;100935.53;4997523;28;6796;-79
2022/09/19 06:45:38;;;;;;;;;;;;;;;14.09;63.52;100946.91;4982874;28;7006;-79
2022/09/19 06:48:05;;;;;;;;;;;;;;;14.14;64.68;100947.97;4992089;28;7281;-80
2022/09/19 06:50:31;;;;;;;;;;;;;;;14.24;63.97;100954.41;4996720;28;7236;-79
2022/09/19 06:52:57;;;;;;;;;;;;;;;14.33;64.00;100956.47;4998494;28;6968;-79
2022/09/19 06:55:25;;;;;;;;;;;;;;;14.44;64.23;100959.50;4999063;28;9548;-79
2022/09/19 06:58:03;;;;;;;;;;;;;;;14.56;64.13;100965.16;4993919;28;7036;-79
2022/09/19 07:00:35;;;;;;;;;;;;;;;14.69;64.99;100965.69;4980410;28;8617;-79
2022/09/19 07:03:04;;;;;;;;;;;;;;;14.84;64.49;100968.88;4993302;28;7147;-79
2022/09/19 07:05:36;;;;;;;;;;;;;;;14.99;65.19;100955.69;4992663;28;8515;-79
2022/09/19 07:08:02;;;;;;;;;;;;;;;15.11;65.05;100959.56;4998069;28;8597;-79
2022/09/19 07:10:28;;;;;;;;;;;;;;;15.24;64.66;100968.66;4981769;28;7007;-80
2022/09/19 07:12:59;;;;;;;;;;;;;;;15.34;64.33;100967.34;4998154;28;6827;-80
2022/09/19 07:15:32;;;;;;;;;;;;;;;15.50;65.12;100971.34;4995074;28;7222;-80
2022/09/19 07:17:59;;;;;;;;;;;;;;;15.65;64.72;100968.47;4982255;28;7175;-79
2022/09/19 07:20:27;;;;;;;;;;;;;;;15.78;65.06;100973.22;4985175;28;7028;-80
2022/09/19 07:23:15;;;;;;;;;;;;;;;15.91;64.22;100977.16;4994279;28;8724;-79
2022/09/19 07:25:43;;;;;;;;;;;;;;;15.97;64.38;100971.31;4995888;28;6977;-80
2022/09/19 07:28:17;;;;;;;;;;;;;;;16.01;64.01;100982.66;4996862;28;6947;-79
2022/09/19 07:30:46;;;;;;;;;;;;;;;16.04;63.67;100977.63;4997372;28;8459;-80
2022/09/19 07:33:15;;;;;;;;;;;;;;;16.06;63.95;100976.81;4997687;28;6803;-79
2022/09/19 07:35:42;;;;;;;;;;;;;;;16.14;63.60;100990.03;4996630;28;7215;-78
2022/09/19 07:38:18;;;;;;;;;;;;;;;16.29;63.86;100983.59;5011969;28;6926;-78
2022/09/19 07:40:45;;;;;;;;;;;;;;;16.42;63.88;100990.09;4978835;28;8655;-79
2022/09/19 07:43:13;;;;;;;;;;;;;;;16.55;63.57;100991.38;4994215;28;6995;-79
2022/09/19 07:45:48;;;;;;;;;;;;;;;16.61;62.91;100997.63;4994899;28;7045;-79
2022/09/19 07:48:15;;;;;;;;;;;;;;;16.59;62.59;100996.69;4997771;28;8331;-79
2022/09/19 07:50:42;;;;;;;;;;;;;;;16.52;62.48;101003.38;4985504;28;6983;-79
2022/09/19 07:53:12;;;;;;;;;;;;;;;16.45;62.38;101006.59;4986529;28;8866;-79
2022/09/19 07:55:41;;;;;;;;;;;;;;;16.38;62.35;101008.09;5014071;28;7257;-78
2022/09/19 07:58:08;;;;;;;;;;;;;;;16.37;62.47;101018.38;4998609;28;6807;-79
2022/09/19 08:00:37;;;;;;;;;;;;;;;16.40;62.78;101015.88;4998438;28;7259;-79
2022/09/19 08:03:09;;;;;;;;;;;;;;;16.47;62.82;101010.09;4999226;28;6943;-78
2022/09/19 08:05:39;;;;;;;;;;;;;;;16.58;63.08;101017.34;5001181;28;8527;-79
2022/09/19 08:08:09;;;;;;;;;;;;;;;16.71;63.18;101023.81;4998815;28;6795;-79
2022/09/19 08:10:35;;;;;;;;;;;;;;;16.88;63.71;101020.06;4997632;28;6804;-79
2022/09/19 08:13:04;;;;;;;;;;;;;;;17.07;63.55;101018.94;4982861;28;6939;-78
2022/09/19 08:15:35;;;;;;;;;;;;;;;17.24;62.88;101013.41;4979368;28;6959;-78
2022/09/19 08:18:05;;;;;;;;;;;;;;;17.38;62.79;101023.31;4999272;28;7236;-79
2022/09/19 08:20:38;;;;;;;;;;;;;;;17.50;62.50;101034.06;5000010;28;7439;-78
2022/09/19 08:23:15;;;;;;;;;;;;;;;17.66;62.53;101029.31;4998017;28;6980;-78
2022/09/19 08:25:46;;;;;;;;;;;;;;;17.78;62.63;101024.50;5000680;28;7177;-78
2022/09/19 08:28:22;;;;;;;;;;;;;;;17.86;61.78;101025.56;4983500;28;7117;-79
2022/09/19 08:30:48;;;;;;;;;;;;;;;17.95;62.43;101031.84;4987901;28;6979;-79
2022/09/19 08:33:14;;;;;;;;;;;;;;;18.02;62.14;101045.03;4998394;28;8502;-78
2022/09/19 08:35:41;;;;;;;;;;;;;;;18.08;61.59;101039.16;4995586;28;6794;-78
2022/09/19 08:38:10;;;;;;;;;;;;;;;18.17;61.35;101047.19;4996242;28;7027;-78
2022/09/19 08:40:39;;;;;;;;;;;;;;;18.27;61.05;101047.44;4999704;28;7237;-78
2022/09/19 08:43:12;;;;;;;;;;;;;;;18.36;61.02;101055.47;4982050;28;7215;-79
2022/09/19 08:46:17;;;;;;;;;;;;;;;18.46;61.16;101054.88;5015895;28;6861;-78
2022/09/19 08:49:11;;;;;;;;;;;;;;;18.56;60.76;101060.31;5015173;28;6960;-78
2022/09/19 08:52:25;;;;;;;;;;;;;;;18.64;60.73;101051.00;4986164;28;7185;-79
2022/09/19 08:54:55;;;;;;;;;;;;;;;18.69;60.11;101051.13;5009784;28;7261;-77
2022/09/19 08:57:37;;;;;;;;;;;;;;;18.78;60.61;101063.44;4996049;28;6803;-77
2022/09/19 09:00:32;;;;;;;;;;;;;;;18.94;60.74;101062.09;4998024;28;7147;-78
2022/09/19 09:03:05;;;;;;;;;;;;;;;19.06;59.72;101061.53;4975245;28;11501;-78
2022/09/19 09:05:59;;;;;;;;;;;;;;;19.18;59.57;101059.22;4991659;28;7300;-78
2022/09/19 09:08:51;;;;;;;;;;;;;;;19.26;59.53;101057.69;5012656;28;6812;-78
2022/09/19 09:11:30;;;;;;;;;;;;;;;19.34;59.08;101049.19;5012764;28;6863;-78
2022/09/19 09:14:31;;;;;;;;;;;;;;;19.50;59.99;101055.59;5011215;28;7213;-77
2022/09/19 09:17:34;;;;;;;;;;;;;;;19.69;59.32;101046.44;4983787;28;7234;-78
2022/09/19 09:20:13;;;;;;;;;;;;;;;19.83;58.73;101050.22;4994118;28;7045;-77
2022/09/19 09:22:49;;;;;;;;;;;;;;;19.89;58.67;101053.78;5015388;28;6819;-78
2022/09/19 09:25:29;;;;;;;;;;;;;;;19.94;58.33;101053.06;4984097;28;7237;-78
2022/09/19 09:28:26;;;;;;;;;;;;;;;19.92;57.43;101049.50;4994604;28;6800;-78
2022/09/19 09:31:13;;;;;;;;;;;;;;;19.92;57.51;101059.06;4979472;28;7333;-79
2022/09/19 09:34:11;;;;;;;;;;;;;;;19.89;57.40;101069.38;4992505;28;6804;-78
2022/09/19 09:36:49;;;;;;;;;;;;;;;19.78;57.01;101057.03;4980579;28;7000;-78
2022/09/19 09:39:39;;;;;;;;;;;;;;;19.75;57.49;101059.56;4980158;28;6800;-77
2022/09/19 09:42:07;;;;;;;;;;;;;;;19.82;57.31;101065.78;4990696;28;7374;-77
2022/09/19 09:44:54;;;;;;;;;;;;;;;19.92;57.49;101064.25;4990765;28;6812;-78
2022/09/19 09:47:44;;;;;;;;;;;;;;;20.09;57.75;101062.91;4993877;28;7302;-78
2022/09/19 09:50:49;;;;;;;;;;;;;;;20.26;56.76;101059.72;4989580;28;6935;-77
2022/09/19 09:53:59;;;;;;;;;;;;;;;20.37;56.81;101067.72;4993956;28;7238;-77
2022/09/19 09:56:47;;;;;;;;;;;;;;;20.50;56.36;101061.88;4992644;28;6809;-78
2022/09/19 10:05:55;;;;;;;;;;;;;;;20.91;56.53;101055.66;4991676;28;6788;-77
2022/09/19 10:08:59;;;;;;;;;;;;;;;21.16;55.95;101063.84;4979474;28;7241;-77
2022/09/19 10:11:45;;;;;;;;;;;;;;;21.44;55.30;101055.53;4995361;28;6992;-77
2022/09/19 10:14:28;;;;;;;;;;;;;;;21.63;53.92;101054.91;4994853;28;6985;-76
2022/09/19 10:17:00;;;;;;;;;;;;;;;21.77;53.99;101055.13;4979521;28;7139;-76
2022/09/19 10:19:51;;;;;;;;;;;;;;;21.98;53.05;101053.63;4988568;28;6827;-77
2022/09/19 10:22:17;;;;;;;;;;;;;;;21.99;52.64;101055.38;4977866;28;7017;-76
2022/09/19 10:24:53;;;;;;;;;;;;;;;22.00;52.10;101051.88;4992814;28;7168;-76
2022/09/19 10:27:38;;;;;;;;;;;;;;;22.06;52.26;101051.97;4992609;28;6851;-76
2022/09/19 10:30:27;;;;;;;;;;;;;;;22.16;51.87;101049.47;4991288;28;7048;-76
2022/09/19 10:32:54;;;;;;;;;;;;;;;22.24;51.35;101049.53;4977268;28;11171;-76
2022/09/19 10:35:38;;;;;;;;;;;;;;;22.32;51.31;101051.38;4978830;28;7988;-76
2022/09/19 10:38:13;;;;;;;;;;;;;;;22.33;50.88;101049.63;4987698;28;7006;-76
2022/09/19 10:41:01;;;;;;;;;;;;;;;22.42;50.77;101056.69;4979979;28;8476;-76
2022/09/19 10:43:45;;;;;;;;;;;;;;;22.57;50.60;101054.22;5008395;28;7236;-76
2022/09/19 10:46:20;;;;;;;;;;;;;;;22.84;50.63;101054.41;4989387;28;7222;-76
2022/09/19 10:48:56;;;;;;;;;;;;;;;23.60;50.10;101038.34;4991094;28;7264;-76
2022/09/19 10:51:44;;;;;;;;;;;;;;;24.37;48.85;101042.94;4980368;28;6943;-75
2022/09/19 10:54:25;;;;;;;;;;;;;;;25.40;47.29;101027.06;4980847;28;7011;-76
2022/09/19 10:56:58;;;;;;;;;;;;;;;26.38;45.51;101021.31;4981837;28;6999;-76
2022/09/19 10:59:38;;;;;;;;;;;;;;;27.40;43.97;101016.81;4989493;28;7163;-76
2022/09/19 11:02:25;;;;;;;;;;;;;;;28.32;42.03;101010.28;4976984;28;6981;-75
2022/09/19 11:05:03;;;;;;;;;;;;;;;29.04;40.73;101020.47;4994111;28;6995;-75
2022/09/19 11:07:41;;;;;;;;;;;;;;;29.72;40.18;101002.41;4978850;28;7189;-75
2022/09/19 11:10:33;;;;;;;;;;;;;;;30.50;38.85;101011.97;4978661;28;6796;-75
2022/09/19 11:13:23;;;;;;;;;;;;;;;30.96;37.73;101002.00;4988868;28;7099;-75
2022/09/19 11:16:22;;;;;;;;;;;;;;;31.20;36.81;101002.19;4991118;28;6867;-76
2022/09/19 11:19:06;;;;;;;;;;;;;;;31.07;36.67;101004.31;4978200;28;8535;-75
2022/09/19 11:22:07;;;;;;;;;;;;;;;31.23;36.00;100995.94;4989787;28;6807;-75
2022/09/19 11:24:56;;;;;;;;;;;;;;;31.55;35.93;100996.78;4988877;28;7226;-75
2022/09/19 11:27:39;;;;;;;;;;;;;;;31.56;35.11;100990.56;4974575;28;6796;-76
2022/09/19 11:30:19;;;;;;;;;;;;;;;30.40;34.63;101000.78;4989368;28;6804;-75
2022/09/19 11:33:19;;;;;;;;;;;;;;;29.52;35.84;100988.72;4977123;28;11723;-76
2022/09/19 11:36:14;;;;;;;;;;;;;;;29.59;35.77;100991.22;4987357;28;6808;-76
2022/09/19 11:39:37;;;;;;;;;;;;;;;30.04;35.87;100985.78;4990692;28;7070;-75
2022/09/19 11:42:14;;;;;;;;;;;;;;;30.60;34.92;100978.25;4991195;28;6887;-75
2022/09/19 11:44:59;;;;;;;;;;;;;;;31.06;33.98;100981.41;4990907;28;6828;-75
2022/09/19 11:48:11;;;;;;;;;;;;;;;31.41;33.24;100974.25;4993220;28;7086;-76
2022/09/19 11:50:59;;;;;;;;;;;;;;;31.58;32.93;100978.13;4989806;28;7276;-76
2022/09/19 11:53:56;;;;;;;;;;;;;;;31.76;31.95;100962.56;4978712;28;7032;-76
2022/09/19 11:56:40;;;;;;;;;;;;;;;31.86;32.08;100970.22;4993493;28;7238;-76
2022/09/19 11:59:54;;;;;;;;;;;;;;;31.93;31.67;100962.94;4990550;28;6784;-76
2022/09/19 12:02:36;;;;;;;;;;;;;;;31.88;31.26;100958.69;4991614;28;6808;-76
2022/09/19 12:06:03;;;;;;;;;;;;;;;32.06;31.25;100965.16;4988757;28;7260;-76
2022/09/19 12:08:43;;;;;;;;;;;;;;;32.05;30.63;100971.38;4981128;28;7320;-76
2022/09/19 12:11:19;;;;;;;;;;;;;;;32.04;30.70;100977.59;4993237;28;6880;-76
2022/09/19 12:14:00;;;;;;;;;;;;;;;32.05;30.65;100966.09;4995963;28;6807;-76
2022/09/19 12:16:46;;;;;;;;;;;;;;;32.20;30.48;100959.41;4982810;28;6971;-76
2022/09/19 12:19:24;;;;;;;;;;;;;;;32.44;30.48;100962.16;4979297;28;7418;-76
2022/09/19 12:22:11;;;;;;;;;;;;;;;32.59;29.56;100964.25;4991004;28;7102;-75
2022/09/19 12:24:54;;;;;;;;;;;;;;;32.04;29.97;100959.94;4982670;28;6876;-75
2022/09/19 12:27:22;;;;;;;;;;;;;;;31.08;30.71;100961.06;4994680;28;6880;-75
2022/09/19 12:30:18;;;;;;;;;;;;;;;29.94;30.77;100971.91;4998084;28;8095;-75
2022/09/19 12:33:11;;;;;;;;;;;;;;;28.85;31.35;100978.63;4974257;28;11579;-75
2022/09/19 12:35:49;;;;;;;;;;;;;;;27.68;32.48;100983.16;4995659;28;6800;-75
2022/09/19 12:39:02;;;;;;;;;;;;;;;26.62;33.18;100986.97;4980810;28;6983;-75
2022/09/19 12:42:13;;;;;;;;;;;;;;;25.64;33.60;100977.16;4992623;28;7003;-75
2022/09/19 12:44:39;;;;;;;;;;;;;;;25.03;34.25;100988.72;4977047;28;7210;-75
2022/09/19 12:47:25;;;;;;;;;;;;;;;24.60;34.61;100989.66;4992891;28;7097;-75
2022/09/19 12:50:32;;;;;;;;;;;;;;;24.17;34.63;101003.63;4995968;28;6816;-75
2022/09/19 12:53:31;;;;;;;;;;;;;;;23.77;35.41;101005.25;4992760;28;6898;-75
2022/09/19 12:56:04;;;;;;;;;;;;;;;23.33;36.22;101019.06;4996630;28;7349;-75
2022/09/19 12:59:13;;;;;;;;;;;;;;;22.76;37.02;101012.56;4988767;28;6816;-75
2022/09/19 13:01:47;;;;;;;;;;;;;;;22.10;38.14;101012.84;4992319;28;6841;-75
2022/09/19 13:04:41;;;;;;;;;;;;;;;21.64;39.21;101011.47;4993071;28;6812;-75
2022/09/19 13:07:30;;;;;;;;;;;;;;;21.43;40.19;101014.69;4991941;28;7062;-75
2022/09/19 13:10:26;;;;;;;;;;;;;;;21.59;40.77;101020.94;4993865;28;6859;-75
2022/09/19 13:13:33;;;;;;;;;;;;;;;21.72;40.62;101012.44;4995622;28;7050;-76
2022/09/19 13:16:13;;;;;;;;;;;;;;;21.64;40.73;101003.66;4980760;28;8155;-75
2022/09/19 13:24:42;;;;;;;;;;;;;;;20.89;41.62;101004.38;4983405;28;6796;-75
2022/09/19 13:27:09;;;;;;;;;;;;;;;20.72;41.74;101006.69;4979936;28;7237;-75
2022/09/19 13:29:35;;;;;;;;;;;;;;;20.57;42.50;101010.81;4994439;28;7066;-74
2022/09/19 13:32:23;;;;;;;;;;;;;;;20.34;42.49;101013.03;5006993;28;7305;-75
2022/09/19 13:35:05;;;;;;;;;;;;;;;19.97;43.21;101011.50;4995543;28;6820;-74
2022/09/19 13:37:34;;;;;;;;;;;;;;;19.68;43.58;101018.69;4988521;28;6980;-73
2022/09/19 13:40:27;;;;;;;;;;;;;;;19.28;44.63;101013.53;4994927;28;7327;-74
2022/09/19 13:43:17;;;;;;;;;;;;;;;18.93;45.34;101019.66;4994952;28;7044;-76
2022/09/19 13:46:10;;;;;;;;;;;;;;;18.62;46.93;101016.31;4993913;28;7222;-75
2022/09/19 13:48:50;;;;;;;;;;;;;;;18.65;47.96;101020.72;4990746;28;6989;-74
2022/09/19 13:51:28;;;;;;;;;;;;;;;19.00;48.32;101010.28;4997953;28;6808;-75
2022/09/19 13:54:32;;;;;;;;;;;;;;;19.75;49.07;101006.69;4993320;28;6808;-75
2022/09/19 13:57:03;;;;;;;;;;;;;;;20.59;48.10;101003.91;4978350;28;7011;-75